createdAt,value
2017-05-28T00:00:18.698Z,0
2017-05-28T00:01:32.483Z,0
2017-05-28T00:02:47.952Z,0
2017-05-28T00:04:03.599Z,0
2017-05-28T00:05:16.289Z,0
2017-05-28T00:06:31.764Z,0
2017-05-28T00:07:47.464Z,0
2017-05-28T00:09:03.118Z,0
2017-05-28T00:10:18.631Z,0
2017-05-28T00:11:34.091Z,0
2017-05-28T00:12:48.075Z,0
2017-05-28T00:14:03.742Z,0
2017-05-28T00:15:19.199Z,0
2017-05-28T00:16:33.175Z,0
2017-05-28T00:17:48.704Z,0
2017-05-28T00:19:04.443Z,0
2017-05-28T00:20:19.886Z,0
2017-05-28T00:21:35.359Z,0
2017-05-28T00:22:49.789Z,0
2017-05-28T00:24:05.598Z,0
2017-05-28T00:25:21.051Z,0
2017-05-28T00:26:36.533Z,0
2017-05-28T00:28:22.754Z,0
2017-05-28T00:29:38.064Z,0
2017-05-28T00:30:53.503Z,0
2017-05-28T00:32:09.009Z,0
2017-05-28T00:33:24.439Z,0
2017-05-28T00:34:40.027Z,0
2017-05-28T00:35:55.576Z,0
2017-05-28T00:37:09.674Z,0
2017-05-28T00:38:25.103Z,0
2017-05-28T00:39:40.736Z,0
2017-05-28T00:40:56.339Z,0
2017-05-28T00:42:10.502Z,0
2017-05-28T00:43:25.937Z,0
2017-05-28T00:44:40.268Z,0
2017-05-28T00:45:55.703Z,0
2017-05-28T00:47:11.170Z,0
2017-05-28T00:48:26.655Z,0
2017-05-28T00:49:42.262Z,0
2017-05-28T00:50:56.284Z,0
2017-05-28T00:52:11.721Z,0
2017-05-28T00:53:27.207Z,0
2017-05-28T00:54:42.859Z,0
2017-05-28T00:55:58.303Z,0
2017-05-28T00:57:13.792Z,0
2017-05-28T00:58:29.232Z,0
2017-05-28T00:59:44.922Z,0
2017-05-28T01:01:00.384Z,0
2017-05-28T01:02:15.844Z,0
2017-05-28T01:03:31.329Z,0
2017-05-28T01:04:47.065Z,0
2017-05-28T01:06:02.479Z,0
2017-05-28T01:07:17.961Z,0
2017-05-28T01:08:33.415Z,0
2017-05-28T01:09:49.055Z,0
2017-05-28T01:11:04.553Z,0
2017-05-28T01:12:20.040Z,0
2017-05-28T01:13:35.194Z,0
2017-05-28T01:14:50.834Z,0
2017-05-28T01:16:06.252Z,0
2017-05-28T01:17:20.443Z,0
2017-05-28T01:18:33.249Z,0
2017-05-28T01:19:48.900Z,0
2017-05-28T01:21:04.329Z,0
2017-05-28T01:22:19.824Z,0
2017-05-28T01:23:35.250Z,0
2017-05-28T01:24:50.909Z,0
2017-05-28T01:26:05.058Z,0
2017-05-28T01:27:20.513Z,0
2017-05-28T01:28:36.153Z,0
2017-05-28T01:29:51.796Z,0
2017-05-28T01:31:07.221Z,0
2017-05-28T01:32:22.671Z,0
2017-05-28T01:33:36.941Z,0
2017-05-28T01:34:52.581Z,0
2017-05-28T01:36:06.699Z,0
2017-05-28T01:37:20.806Z,0
2017-05-28T01:38:34.992Z,0
2017-05-28T01:39:50.636Z,0
2017-05-28T01:41:04.830Z,0
2017-05-28T01:42:19.360Z,0
2017-05-28T01:43:34.819Z,0
2017-05-28T01:44:50.714Z,0
2017-05-28T01:46:06.160Z,0
2017-05-28T01:47:21.842Z,0
2017-05-28T01:48:37.312Z,0
2017-05-28T01:49:53.034Z,0
2017-05-28T01:51:08.837Z,0
2017-05-28T01:52:24.301Z,0
2017-05-28T01:53:39.804Z,0
2017-05-28T01:54:55.401Z,0
2017-05-28T01:56:11.049Z,0
2017-05-28T01:57:26.546Z,0
2017-05-28T01:58:41.964Z,0
2017-05-28T01:59:57.217Z,0
2017-05-28T02:01:11.419Z,0
2017-05-28T02:02:26.901Z,0
2017-05-28T02:03:42.587Z,0
2017-05-28T02:04:58.267Z,0
2017-05-28T02:06:12.231Z,0
2017-05-28T02:07:27.701Z,0
2017-05-28T02:08:42.113Z,0
2017-05-28T02:09:56.088Z,0
2017-05-28T02:11:10.635Z,0
2017-05-28T02:12:26.304Z,0
2017-05-28T02:13:40.449Z,0
2017-05-28T02:14:55.870Z,0
2017-05-28T02:16:10.135Z,0
2017-05-28T02:17:25.593Z,0
2017-05-28T02:18:41.143Z,0
2017-05-28T02:19:56.603Z,0
2017-05-28T02:21:10.892Z,4
2017-05-28T02:22:26.390Z,4
2017-05-28T02:23:40.525Z,0
2017-05-28T02:24:56.035Z,4
2017-05-28T02:26:11.671Z,4
2017-05-28T02:27:27.084Z,4
2017-05-28T02:28:42.523Z,4
2017-05-28T02:29:57.941Z,4
2017-05-28T02:31:13.621Z,4
2017-05-28T02:32:29.162Z,8
2017-05-28T02:33:43.198Z,12
2017-05-28T02:34:55.861Z,12
2017-05-28T02:36:11.415Z,16
2017-05-28T02:37:26.866Z,16
2017-05-28T02:38:42.428Z,20
2017-05-28T02:39:57.857Z,24
2017-05-28T02:41:10.819Z,24
2017-05-28T02:42:26.279Z,32
2017-05-28T02:43:41.756Z,40
2017-05-28T02:44:57.207Z,44
2017-05-28T02:46:11.576Z,48
2017-05-28T02:47:27.008Z,60
2017-05-28T02:48:42.458Z,68
2017-05-28T02:49:57.901Z,76
2017-05-28T02:51:12.270Z,88
2017-05-28T02:52:26.402Z,100
2017-05-28T02:53:40.498Z,112
2017-05-28T02:54:55.909Z,128
2017-05-28T02:56:11.326Z,144
2017-05-28T02:57:26.994Z,160
2017-05-28T02:58:40.998Z,176
2017-05-28T02:59:56.471Z,200
2017-05-28T03:01:10.598Z,216
2017-05-28T03:02:26.275Z,240
2017-05-28T03:03:40.466Z,264
2017-05-28T03:04:55.918Z,292
2017-05-28T03:06:09.732Z,312
2017-05-28T03:07:25.437Z,340
2017-05-28T03:08:41.126Z,368
2017-05-28T03:09:56.559Z,400
2017-05-28T03:11:11.990Z,432
2017-05-28T03:12:27.663Z,464
2017-05-28T03:13:41.890Z,492
2017-05-28T03:14:57.304Z,528
2017-05-28T03:16:12.739Z,564
2017-05-28T03:17:28.388Z,600
2017-05-28T03:18:42.541Z,632
2017-05-28T03:19:56.706Z,668
2017-05-28T03:21:12.097Z,708
2017-05-28T03:22:27.749Z,744
2017-05-28T03:23:43.483Z,780
2017-05-28T03:24:59.122Z,816
2017-05-28T03:26:14.590Z,852
2017-05-28T03:27:30.408Z,892
2017-05-28T03:28:45.864Z,932
2017-05-28T03:30:01.287Z,968
2017-05-28T03:31:16.752Z,1004
2017-05-28T03:32:32.402Z,1040
2017-05-28T03:33:46.339Z,1076
2017-05-28T03:35:00.430Z,1112
2017-05-28T03:36:14.630Z,1148
2017-05-28T03:37:30.285Z,1184
2017-05-28T03:38:44.487Z,1220
2017-05-28T03:39:59.891Z,1256
2017-05-28T03:41:15.341Z,1288
2017-05-28T03:42:29.502Z,1324
2017-05-28T03:43:45.122Z,1364
2017-05-28T03:45:00.601Z,1396
2017-05-28T03:46:16.012Z,1436
2017-05-28T03:47:31.509Z,1472
2017-05-28T03:48:47.117Z,1508
2017-05-28T03:50:02.560Z,1544
2017-05-28T03:51:16.339Z,1584
2017-05-28T03:52:31.798Z,1616
2017-05-28T03:53:46.175Z,1652
2017-05-28T03:55:32.462Z,1700
2017-05-28T03:56:47.837Z,1736
2017-05-28T03:58:02.232Z,1768
2017-05-28T03:59:17.656Z,1804
2017-05-28T04:00:33.151Z,1844
2017-05-28T04:01:48.560Z,1880
2017-05-28T04:03:04.165Z,1916
2017-05-28T04:04:19.575Z,1948
2017-05-28T04:05:35.032Z,1984
2017-05-28T04:06:50.741Z,2020
2017-05-28T04:08:06.341Z,2056
2017-05-28T04:09:21.771Z,2092
2017-05-28T04:10:37.205Z,2124
2017-05-28T04:11:52.674Z,2160
2017-05-28T04:13:08.260Z,2196
2017-05-28T04:14:23.765Z,2236
2017-05-28T04:15:39.192Z,2272
2017-05-28T04:16:54.660Z,2308
2017-05-28T04:18:10.282Z,2348
2017-05-28T04:19:25.712Z,2384
2017-05-28T04:20:41.187Z,2420
2017-05-28T04:21:56.970Z,2452
2017-05-28T04:23:12.509Z,2492
2017-05-28T04:24:27.921Z,2524
2017-05-28T04:25:43.297Z,2560
2017-05-28T04:26:58.629Z,2600
2017-05-28T04:28:14.328Z,2636
2017-05-28T04:29:29.724Z,2668
2017-05-28T04:30:45.183Z,2700
2017-05-28T04:32:00.621Z,2736
2017-05-28T04:33:16.261Z,2768
2017-05-28T04:34:31.673Z,2800
2017-05-28T04:35:47.031Z,2828
2017-05-28T04:37:02.494Z,2864
2017-05-28T04:38:18.075Z,2896
2017-05-28T04:39:32.196Z,2932
2017-05-28T04:40:46.389Z,2964
2017-05-28T04:42:01.784Z,3000
2017-05-28T04:43:17.456Z,3040
2017-05-28T04:44:31.500Z,3068
2017-05-28T04:45:46.951Z,3104
2017-05-28T04:47:02.429Z,3136
2017-05-28T04:48:18.252Z,3164
2017-05-28T04:49:32.607Z,3196
2017-05-28T04:50:46.387Z,3228
2017-05-28T04:52:01.832Z,3260
2017-05-28T04:53:17.461Z,3296
2017-05-28T04:54:32.924Z,3324
2017-05-28T04:55:48.413Z,3356
2017-05-28T04:57:03.905Z,3384
2017-05-28T04:58:19.566Z,3412
2017-05-28T04:59:33.832Z,3444
2017-05-28T05:00:49.508Z,3480
2017-05-28T05:02:04.891Z,3504
2017-05-28T05:03:20.845Z,3540
2017-05-28T05:04:36.310Z,3572
2017-05-28T05:05:51.730Z,3608
2017-05-28T05:07:07.172Z,3644
2017-05-28T05:08:22.846Z,3680
2017-05-28T05:09:36.815Z,3716
2017-05-28T05:10:50.890Z,3752
2017-05-28T05:12:05.046Z,3784
2017-05-28T05:13:20.692Z,3820
2017-05-28T05:14:36.453Z,3860
2017-05-28T05:15:51.944Z,3896
2017-05-28T05:17:07.355Z,3944
2017-05-28T05:18:23.089Z,3992
2017-05-28T05:19:38.555Z,4048
2017-05-28T05:20:53.940Z,4104
2017-05-28T05:22:09.392Z,4160
2017-05-28T05:23:21.921Z,4224
2017-05-28T05:24:36.253Z,4288
2017-05-28T05:25:51.686Z,4348
2017-05-28T05:27:04.556Z,4420
2017-05-28T05:28:20.012Z,4500
2017-05-28T05:29:35.606Z,4552
2017-05-28T05:30:49.644Z,4592
2017-05-28T05:32:05.064Z,4628
2017-05-28T05:33:20.516Z,4660
2017-05-28T05:34:36.262Z,4688
2017-05-28T05:35:50.650Z,4700
2017-05-28T05:37:06.125Z,4712
2017-05-28T05:38:20.224Z,4720
2017-05-28T05:39:36.143Z,4736
2017-05-28T05:40:50.225Z,4752
2017-05-28T05:42:05.595Z,4764
2017-05-28T05:43:21.243Z,4764
2017-05-28T05:44:36.869Z,4768
2017-05-28T05:45:52.311Z,4768
2017-05-28T05:47:06.291Z,4772
2017-05-28T05:48:21.771Z,4776
2017-05-28T05:49:36.184Z,4792
2017-05-28T05:50:51.958Z,4820
2017-05-28T05:52:06.088Z,4848
2017-05-28T05:53:20.220Z,4868
2017-05-28T05:54:35.835Z,4892
2017-05-28T05:55:51.245Z,4912
2017-05-28T05:57:05.327Z,4924
2017-05-28T05:58:20.757Z,4912
2017-05-28T05:59:36.714Z,4760
2017-05-28T06:00:52.280Z,4824
2017-05-28T06:02:07.368Z,4888
2017-05-28T06:03:22.786Z,4900
2017-05-28T06:04:38.426Z,4896
2017-05-28T06:05:53.877Z,4884
2017-05-28T06:07:08.026Z,4888
2017-05-28T06:08:23.491Z,4908
2017-05-28T06:09:39.191Z,4936
2017-05-28T06:10:54.647Z,4796
2017-05-28T06:12:08.391Z,4652
2017-05-28T06:13:22.535Z,4972
2017-05-28T06:14:38.044Z,4908
2017-05-28T06:15:53.673Z,4544
2017-05-28T06:17:09.109Z,4868
2017-05-28T06:18:23.493Z,4944
2017-05-28T06:19:37.595Z,4928
2017-05-28T06:20:52.188Z,4924
2017-05-28T06:22:06.322Z,4924
2017-05-28T06:23:20.404Z,4920
2017-05-28T06:24:34.519Z,4928
2017-05-28T06:25:50.191Z,4936
2017-05-28T06:27:05.677Z,4800
2017-05-28T06:28:21.101Z,4720
2017-05-28T06:29:36.571Z,4880
2017-05-28T06:30:52.208Z,4956
2017-05-28T06:32:05.978Z,5016
2017-05-28T06:33:20.016Z,5032
2017-05-28T06:34:35.456Z,5052
2017-05-28T06:35:51.095Z,5068
2017-05-28T06:37:06.515Z,5084
2017-05-28T06:38:22.019Z,5096
2017-05-28T06:39:37.432Z,5124
2017-05-28T06:40:51.622Z,5136
2017-05-28T06:42:07.132Z,5140
2017-05-28T06:43:22.839Z,5148
2017-05-28T06:44:38.277Z,5164
2017-05-28T06:45:52.435Z,5184
2017-05-28T06:47:07.889Z,5208
2017-05-28T06:48:23.357Z,5236
2017-05-28T06:49:38.828Z,5264
2017-05-28T06:50:54.533Z,5292
2017-05-28T06:52:10.031Z,5328
2017-05-28T06:53:25.406Z,5360
2017-05-28T06:54:40.875Z,5396
2017-05-28T06:55:56.553Z,5416
2017-05-28T06:57:11.984Z,5428
2017-05-28T06:58:27.473Z,5428
2017-05-28T06:59:43.161Z,5400
2017-05-28T07:00:58.803Z,5500
2017-05-28T07:02:14.241Z,5624
2017-05-28T07:03:29.644Z,5664
2017-05-28T07:04:43.913Z,5696
2017-05-28T07:05:59.571Z,5736
2017-05-28T07:07:14.950Z,5772
2017-05-28T07:08:29.135Z,5812
2017-05-28T07:09:45.044Z,5844
2017-05-28T07:11:00.640Z,5872
2017-05-28T07:12:16.100Z,5884
2017-05-28T07:13:31.546Z,5908
2017-05-28T07:14:46.619Z,5924
2017-05-28T07:16:01.015Z,5948
2017-05-28T07:17:15.155Z,5980
2017-05-28T07:18:30.596Z,6016
2017-05-28T07:19:46.020Z,6068
2017-05-28T07:21:01.728Z,6108
2017-05-28T07:22:17.088Z,6116
2017-05-28T07:23:32.962Z,6128
2017-05-28T07:24:48.608Z,6132
2017-05-28T07:26:04.354Z,6124
2017-05-28T07:27:19.809Z,6132
2017-05-28T07:28:35.245Z,6148
2017-05-28T07:29:50.691Z,6172
2017-05-28T07:31:06.657Z,6152
2017-05-28T07:32:22.160Z,6136
2017-05-28T07:33:37.643Z,6404
2017-05-28T07:34:53.093Z,6556
2017-05-28T07:36:08.819Z,6672
2017-05-28T07:37:24.279Z,6788
2017-05-28T07:38:39.963Z,6912
2017-05-28T07:39:54.170Z,7040
2017-05-28T07:41:08.519Z,7048
2017-05-28T07:42:22.674Z,7296
2017-05-28T07:43:36.831Z,7568
2017-05-28T07:44:50.841Z,7828
2017-05-28T07:46:06.678Z,8052
2017-05-28T07:47:22.317Z,8272
2017-05-28T07:48:37.828Z,8488
2017-05-28T07:49:53.519Z,8716
2017-05-28T07:51:09.010Z,8900
2017-05-28T07:52:23.331Z,9004
2017-05-28T07:53:38.064Z,8444
2017-05-28T07:54:53.506Z,9080
2017-05-28T07:56:08.953Z,9260
2017-05-28T07:57:24.594Z,9148
2017-05-28T07:58:40.329Z,9056
2017-05-28T07:59:55.809Z,8080
2017-05-28T08:01:11.257Z,7868
2017-05-28T08:02:26.918Z,7684
2017-05-28T08:03:42.406Z,8492
2017-05-28T08:04:57.850Z,9012
2017-05-28T08:06:11.851Z,9152
2017-05-28T08:07:27.534Z,9300
2017-05-28T08:08:43.403Z,9280
2017-05-28T08:09:57.567Z,9428
2017-05-28T08:11:13.056Z,9732
2017-05-28T08:12:28.721Z,10024
2017-05-28T08:13:44.158Z,10288
2017-05-28T08:14:58.304Z,10628
2017-05-28T08:16:12.662Z,10964
2017-05-28T08:17:27.022Z,11352
2017-05-28T08:18:42.785Z,11756
2017-05-28T08:19:58.307Z,12264
2017-05-28T08:21:13.797Z,12868
2017-05-28T08:22:28.151Z,13340
2017-05-28T08:23:43.604Z,14088
2017-05-28T08:24:58.899Z,14636
2017-05-28T08:26:14.673Z,15148
2017-05-28T08:27:30.283Z,15780
2017-05-28T08:28:45.722Z,16080
2017-05-28T08:30:01.165Z,16928
2017-05-28T08:31:16.581Z,17344
2017-05-28T08:32:32.260Z,17504
2017-05-28T08:33:46.325Z,17792
2017-05-28T08:35:01.795Z,19712
2017-05-28T08:36:15.940Z,24896
2017-05-28T08:37:31.770Z,32512
2017-05-28T08:38:45.885Z,33696
2017-05-28T08:40:01.308Z,34848
2017-05-28T08:41:16.781Z,50848
2017-05-28T08:42:32.483Z,49440
2017-05-28T08:43:47.916Z,50720
2017-05-28T08:45:02.402Z,59584
2017-05-28T08:46:17.838Z,45792
2017-05-28T08:47:33.539Z,34240
2017-05-28T08:48:49.144Z,31776
2017-05-28T08:50:04.177Z,48800
2017-05-28T08:51:19.670Z,44704
2017-05-28T08:52:35.349Z,54400
2017-05-28T08:53:50.792Z,63200
2017-05-28T08:55:06.276Z,73920
2017-05-28T08:56:21.704Z,81120
2017-05-28T08:57:37.413Z,74368
2017-05-28T08:58:52.885Z,74784
2017-05-28T09:00:05.607Z,87424
2017-05-28T09:01:21.437Z,76448
2017-05-28T09:02:37.069Z,74432
2017-05-28T09:03:52.480Z,85280
2017-05-28T09:05:08.000Z,97632
2017-05-28T09:06:22.212Z,87360
2017-05-28T09:07:37.888Z,83872
2017-05-28T09:08:53.381Z,69184
2017-05-28T09:10:08.772Z,65632
2017-05-28T09:11:24.258Z,108256
2017-05-28T09:12:39.961Z,121248
2017-05-28T09:13:55.429Z,84096
2017-05-28T09:15:10.979Z,66272
2017-05-28T09:16:26.465Z,85024
2017-05-28T09:17:42.113Z,84288
2017-05-28T09:18:57.649Z,74912
2017-05-28T09:20:13.085Z,75648
2017-05-28T09:21:28.291Z,104736
2017-05-28T09:22:43.978Z,124512
2017-05-28T09:23:59.442Z,102080
2017-05-28T09:25:13.541Z,84384
2017-05-28T09:26:29.034Z,78592
2017-05-28T09:27:43.111Z,65600
2017-05-28T09:28:57.108Z,67616
2017-05-28T09:30:11.301Z,71616
2017-05-28T09:31:26.818Z,73248
2017-05-28T09:32:42.834Z,85920
2017-05-28T09:33:58.673Z,105568
2017-05-28T09:35:14.131Z,97824
2017-05-28T09:36:29.690Z,75488
2017-05-28T09:37:45.388Z,75776
2017-05-28T09:39:01.145Z,96896
2017-05-28T09:40:15.412Z,98688
2017-05-28T09:41:29.559Z,100192
2017-05-28T09:42:43.833Z,115648
2017-05-28T09:43:59.874Z,113024
2017-05-28T09:45:15.434Z,93824
2017-05-28T09:46:30.928Z,105696
2017-05-28T09:47:46.390Z,140896
2017-05-28T09:48:59.473Z,133984
2017-05-28T09:50:15.063Z,102912
2017-05-28T09:51:29.415Z,103296
2017-05-28T09:52:44.927Z,91584
2017-05-28T09:53:57.727Z,77696
2017-05-28T09:55:13.630Z,98368
2017-05-28T09:56:27.932Z,106560
2017-05-28T09:57:43.741Z,98624
2017-05-28T09:58:59.402Z,96160
2017-05-28T10:00:14.936Z,97504
2017-05-28T10:01:30.491Z,104128
2017-05-28T10:02:45.958Z,107648
2017-05-28T10:04:00.302Z,95584
2017-05-28T10:05:15.754Z,108480
2017-05-28T10:06:31.345Z,126656
2017-05-28T10:07:46.863Z,45472
2017-05-28T10:09:02.529Z,99680
2017-05-28T10:10:18.238Z,106944
2017-05-28T10:11:33.787Z,119296
2017-05-28T10:12:48.898Z,105888
2017-05-28T10:14:04.483Z,114944
2017-05-28T10:15:20.024Z,107488
2017-05-28T10:16:35.451Z,95680
2017-05-28T10:17:51.281Z,77536
2017-05-28T10:19:06.989Z,79168
2017-05-28T10:20:22.494Z,70176
2017-05-28T10:21:36.691Z,67488
2017-05-28T10:22:50.791Z,77568
2017-05-28T10:24:06.646Z,85472
2017-05-28T10:25:22.440Z,75904
2017-05-28T10:26:37.940Z,62336
2017-05-28T10:27:53.395Z,65280
2017-05-28T10:29:09.069Z,77120
2017-05-28T10:30:24.616Z,91360
2017-05-28T10:31:40.056Z,93120
2017-05-28T10:32:55.511Z,93760
2017-05-28T10:34:09.934Z,101792
2017-05-28T10:35:25.038Z,111008
2017-05-28T10:36:40.559Z,91552
2017-05-28T10:37:56.277Z,73696
2017-05-28T10:39:11.920Z,64704
2017-05-28T10:40:27.420Z,62144
2017-05-28T10:41:42.936Z,45120
2017-05-28T10:42:58.452Z,37280
2017-05-28T10:44:14.075Z,32512
2017-05-28T10:45:29.533Z,39648
2017-05-28T10:46:45.120Z,50784
2017-05-28T10:48:00.615Z,57696
2017-05-28T10:49:16.300Z,59904
2017-05-28T10:50:31.752Z,59552
2017-05-28T10:51:47.249Z,48992
2017-05-28T10:53:02.747Z,45824
2017-05-28T10:54:18.464Z,42048
2017-05-28T10:55:33.907Z,54944
2017-05-28T10:56:49.398Z,68480
2017-05-28T10:58:05.196Z,84448
2017-05-28T10:59:20.954Z,86624
2017-05-28T11:00:36.456Z,91968
2017-05-28T11:01:52.503Z,107264
2017-05-28T11:03:08.059Z,96768
2017-05-28T11:04:23.771Z,81728
2017-05-28T11:05:39.302Z,103424
2017-05-28T11:06:54.799Z,113664
2017-05-28T11:08:10.321Z,99328
2017-05-28T11:09:26.367Z,108960
2017-05-28T11:10:42.115Z,138976
2017-05-28T11:11:57.625Z,145568
2017-05-28T11:13:13.120Z,102272
2017-05-28T11:14:28.728Z,83712
2017-05-28T11:15:44.224Z,122560
2017-05-28T11:16:58.376Z,145664
2017-05-28T11:18:13.837Z,125280
2017-05-28T11:19:29.636Z,112800
2017-05-28T11:20:45.116Z,130464
2017-05-28T11:22:00.642Z,145664
2017-05-28T11:23:13.395Z,129184
2017-05-28T11:24:29.027Z,104512
2017-05-28T11:25:44.502Z,109344
2017-05-28T11:27:00.199Z,128032
2017-05-28T11:28:15.782Z,103136
2017-05-28T11:29:31.536Z,64608
2017-05-28T11:30:46.983Z,75552
2017-05-28T11:32:02.494Z,112864
2017-05-28T11:33:17.915Z,120704
2017-05-28T11:34:33.837Z,100448
2017-05-28T11:35:49.571Z,110304
2017-05-28T11:37:05.143Z,117152
2017-05-28T11:38:20.908Z,82112
2017-05-28T11:39:36.706Z,73376
2017-05-28T11:40:51.206Z,111488
2017-05-28T11:42:06.717Z,137728
2017-05-28T11:43:22.519Z,115488
2017-05-28T11:44:38.232Z,95104
2017-05-28T11:45:53.722Z,122176
2017-05-28T11:47:09.437Z,148224
2017-05-28T11:48:24.941Z,120096
2017-05-28T11:49:40.368Z,79008
2017-05-28T11:50:55.839Z,76288
2017-05-28T11:52:11.364Z,99520
2017-05-28T11:53:26.897Z,104736
2017-05-28T11:54:42.686Z,107616
2017-05-28T11:55:56.865Z,114368
2017-05-28T11:57:12.264Z,108128
2017-05-28T11:58:27.716Z,93152
2017-05-28T11:59:41.592Z,96736
2017-05-28T12:00:57.620Z,103456
2017-05-28T12:02:13.127Z,82528
2017-05-28T12:03:27.340Z,75712
2017-05-28T12:04:42.852Z,99712
2017-05-28T12:05:58.529Z,123040
2017-05-28T12:07:14.020Z,111360
2017-05-28T12:08:29.558Z,80032
2017-05-28T12:09:45.100Z,76928
2017-05-28T12:11:00.754Z,97696
2017-05-28T12:12:16.258Z,104544
2017-05-28T12:13:31.761Z,88256
2017-05-28T12:14:47.600Z,64064
2017-05-28T12:16:03.629Z,72096
2017-05-28T12:17:19.115Z,78368
2017-05-28T12:18:34.882Z,105696
2017-05-28T12:19:50.369Z,97952
2017-05-28T12:21:06.095Z,85440
2017-05-28T12:22:21.763Z,84288
2017-05-28T12:23:37.194Z,98176
2017-05-28T12:24:52.646Z,99680
2017-05-28T12:26:06.905Z,102208
2017-05-28T12:27:22.497Z,93408
2017-05-28T12:28:38.053Z,83584
2017-05-28T12:29:53.581Z,98816
2017-05-28T12:31:09.308Z,119360
2017-05-28T12:32:24.847Z,123712
2017-05-28T12:33:40.382Z,94272
2017-05-28T12:34:55.917Z,98816
2017-05-28T12:36:12.137Z,113408
2017-05-28T12:37:27.890Z,104192
2017-05-28T12:38:43.377Z,82496
2017-05-28T12:39:58.803Z,82272
2017-05-28T12:41:14.632Z,98208
2017-05-28T12:42:27.654Z,97088
2017-05-28T12:43:43.249Z,76032
2017-05-28T12:44:58.758Z,82144
2017-05-28T12:46:14.473Z,103008
2017-05-28T12:47:28.633Z,112288
2017-05-28T12:48:44.196Z,104096
2017-05-28T12:49:58.375Z,85824
2017-05-28T12:51:14.151Z,98752
2017-05-28T12:52:29.640Z,74432
2017-05-28T12:54:15.841Z,52256
2017-05-28T12:55:31.723Z,56352
2017-05-28T12:56:47.549Z,102560
2017-05-28T12:58:03.046Z,129504
2017-05-28T12:59:18.499Z,97056
2017-05-28T13:00:34.078Z,60576
2017-05-28T13:01:49.830Z,87648
2017-05-28T13:03:05.301Z,70304
2017-05-28T13:04:20.803Z,85920
2017-05-28T13:05:35.289Z,78560
2017-05-28T13:06:50.981Z,85984
2017-05-28T13:08:06.751Z,100416
2017-05-28T13:09:22.217Z,101280
2017-05-28T13:10:37.986Z,97056
2017-05-28T13:11:52.471Z,116288
2017-05-28T13:13:08.015Z,97440
2017-05-28T13:14:23.505Z,76640
2017-05-28T13:15:39.149Z,91200
2017-05-28T13:16:54.803Z,106400
2017-05-28T13:18:10.293Z,81216
2017-05-28T13:19:25.806Z,106848
2017-05-28T13:20:41.400Z,91040
2017-05-28T13:21:57.079Z,61984
2017-05-28T13:23:11.317Z,34976
2017-05-28T13:24:26.758Z,40864
2017-05-28T13:25:40.722Z,24768
2017-05-28T13:26:56.474Z,25056
2017-05-28T13:28:11.997Z,26720
2017-05-28T13:29:27.454Z,29056
2017-05-28T13:30:41.544Z,26720
2017-05-28T13:31:57.333Z,39744
2017-05-28T13:33:11.610Z,29984
2017-05-28T13:34:25.783Z,22560
2017-05-28T13:35:41.279Z,16864
2017-05-28T13:36:56.952Z,11416
2017-05-28T13:38:12.421Z,7952
2017-05-28T13:39:27.902Z,6088
2017-05-28T13:40:40.803Z,5252
2017-05-28T13:41:56.504Z,4604
2017-05-28T13:43:12.029Z,4272
2017-05-28T13:44:26.081Z,4044
2017-05-28T13:45:40.241Z,3752
2017-05-28T13:46:55.648Z,3480
2017-05-28T13:48:10.011Z,3328
2017-05-28T13:49:25.550Z,3356
2017-05-28T13:50:41.040Z,3500
2017-05-28T13:51:55.190Z,3676
2017-05-28T13:53:11.102Z,3924
2017-05-28T13:54:25.186Z,4224
2017-05-28T13:55:40.695Z,4624
2017-05-28T13:56:56.104Z,5188
2017-05-28T13:58:10.499Z,6044
2017-05-28T13:59:25.988Z,7076
2017-05-28T14:00:41.539Z,9020
2017-05-28T14:01:56.996Z,15808
2017-05-28T14:03:11.388Z,53440
2017-05-28T14:04:26.878Z,18144
2017-05-28T14:05:42.300Z,17344
2017-05-28T14:06:58.177Z,16704
2017-05-28T14:08:13.873Z,22432
2017-05-28T14:09:29.289Z,19776
2017-05-28T14:10:43.493Z,25280
2017-05-28T14:11:57.689Z,55872
2017-05-28T14:13:13.392Z,36000
2017-05-28T14:14:28.857Z,24768
2017-05-28T14:15:44.345Z,16576
2017-05-28T14:16:59.883Z,11592
2017-05-28T14:18:15.598Z,10336
2017-05-28T14:19:31.051Z,9256
2017-05-28T14:20:46.586Z,9368
2017-05-28T14:22:02.150Z,10316
2017-05-28T14:23:17.840Z,10924
2017-05-28T14:24:33.326Z,12276
2017-05-28T14:25:48.850Z,12240
2017-05-28T14:27:03.109Z,12792
2017-05-28T14:28:18.725Z,13416
2017-05-28T14:29:32.949Z,14708
2017-05-28T14:30:48.408Z,16640
2017-05-28T14:32:02.610Z,22432
2017-05-28T14:33:18.417Z,15776
2017-05-28T14:34:34.042Z,14252
2017-05-28T14:35:49.512Z,13464
2017-05-28T14:37:05.038Z,15712
2017-05-28T14:38:19.453Z,20416
2017-05-28T14:39:35.294Z,20192
2017-05-28T14:40:51.247Z,20416
2017-05-28T14:42:06.690Z,18560
2017-05-28T14:43:21.086Z,17152
2017-05-28T14:44:36.614Z,15340
2017-05-28T14:45:52.104Z,13672
2017-05-28T14:47:07.599Z,12168
2017-05-28T14:48:21.849Z,10808
2017-05-28T14:49:37.296Z,9664
2017-05-28T14:50:52.787Z,8716
2017-05-28T14:52:08.329Z,8120
2017-05-28T14:53:24.059Z,7980
2017-05-28T14:54:39.631Z,8188
2017-05-28T14:55:53.791Z,8740
2017-05-28T14:57:09.289Z,9568
2017-05-28T14:58:25.197Z,10708
2017-05-28T14:59:40.704Z,12512
2017-05-28T15:00:56.248Z,20320
2017-05-28T15:02:11.715Z,18144
2017-05-28T15:03:26.472Z,17600
2017-05-28T15:04:41.925Z,17248
2017-05-28T15:05:57.539Z,17056
2017-05-28T15:07:13.017Z,17600
2017-05-28T15:08:28.680Z,17920
2017-05-28T15:09:44.187Z,17888
2017-05-28T15:10:59.765Z,17440
2017-05-28T15:12:15.263Z,16832
2017-05-28T15:13:29.680Z,16224
2017-05-28T15:14:45.098Z,15648
2017-05-28T15:16:00.510Z,15136
2017-05-28T15:17:16.062Z,14756
2017-05-28T15:18:31.790Z,14496
2017-05-28T15:19:47.377Z,14328
2017-05-28T15:21:02.831Z,14200
2017-05-28T15:22:18.334Z,14052
2017-05-28T15:23:34.114Z,13896
2017-05-28T15:24:49.575Z,13820
2017-05-28T15:26:05.147Z,13836
2017-05-28T15:27:19.299Z,13900
2017-05-28T15:28:33.678Z,13848
2017-05-28T15:29:49.186Z,13760
2017-05-28T15:31:04.713Z,13708
2017-05-28T15:32:20.180Z,13736
2017-05-28T15:33:35.858Z,13948
2017-05-28T15:34:49.987Z,14240
2017-05-28T15:36:05.495Z,14524
2017-05-28T15:37:21.281Z,14636
2017-05-28T15:38:36.936Z,14516
2017-05-28T15:39:52.396Z,14648
2017-05-28T15:41:06.466Z,14548
2017-05-28T15:42:21.921Z,14252
2017-05-28T15:43:37.567Z,14020
2017-05-28T15:44:53.145Z,13508
2017-05-28T15:46:08.634Z,12964
2017-05-28T15:47:24.166Z,12692
2017-05-28T15:48:38.445Z,12604
2017-05-28T15:49:53.911Z,12684
2017-05-28T15:51:09.714Z,12888
2017-05-28T15:52:25.191Z,13164
2017-05-28T15:53:40.927Z,13340
2017-05-28T15:54:56.362Z,13504
2017-05-28T15:56:11.857Z,13720
2017-05-28T15:57:27.312Z,14024
2017-05-28T15:58:43.036Z,14404
2017-05-28T15:59:58.492Z,14692
2017-05-28T16:01:13.929Z,14992
2017-05-28T16:02:29.702Z,15552
2017-05-28T16:03:45.417Z,16160
2017-05-28T16:05:01.368Z,16768
2017-05-28T16:06:16.861Z,16960
2017-05-28T16:07:32.084Z,17088
2017-05-28T16:08:47.794Z,16576
2017-05-28T16:10:01.998Z,14820
2017-05-28T16:11:16.031Z,14240
2017-05-28T16:12:31.573Z,13724
2017-05-28T16:13:47.058Z,12888
2017-05-28T16:15:02.717Z,11932
2017-05-28T16:16:18.436Z,10976
2017-05-28T16:17:33.940Z,10364
2017-05-28T16:18:49.676Z,10240
2017-05-28T16:20:05.395Z,10400
2017-05-28T16:21:20.807Z,10384
2017-05-28T16:22:36.239Z,10128
2017-05-28T16:24:22.658Z,9948
2017-05-28T16:25:37.829Z,9756
2017-05-28T16:26:53.354Z,9240
2017-05-28T16:28:07.729Z,9008
2017-05-28T16:29:23.373Z,9060
2017-05-28T16:30:38.883Z,9024
2017-05-28T16:31:53.050Z,9180
2017-05-28T16:33:08.544Z,9104
2017-05-28T16:34:24.255Z,9240
2017-05-28T16:35:39.700Z,9148
2017-05-28T16:36:55.223Z,8848
2017-05-28T16:38:10.992Z,8552
2017-05-28T16:39:26.775Z,8344
2017-05-28T16:40:42.298Z,8288
2017-05-28T16:41:56.442Z,8296